createdAt,value
2022-08-14T00:02:27.967Z,2.40
2022-08-14T00:05:39.828Z,4.30
2022-08-14T00:08:52.985Z,2.60
2022-08-14T00:12:01.995Z,2.80
2022-08-14T00:15:19.629Z,4.13
2022-08-14T00:19:06.253Z,4.90
2022-08-14T00:21:58.774Z,3.03
2022-08-14T00:25:09.468Z,2.20
2022-08-14T00:28:17.976Z,3.03
2022-08-14T00:31:35.088Z,3.27
2022-08-14T00:34:52.914Z,2.70
2022-08-14T00:38:02.761Z,2.43
2022-08-14T00:41:16.670Z,2.60
2022-08-14T00:44:32.128Z,2.57
2022-08-14T00:47:45.514Z,2.47
2022-08-14T00:50:55.024Z,3.60
2022-08-14T00:54:05.370Z,2.37
2022-08-14T00:57:29.221Z,2.23
2022-08-14T01:00:47.553Z,2.30
2022-08-14T01:04:05.640Z,2.57
2022-08-14T01:07:21.303Z,2.67
2022-08-14T01:10:46.149Z,2.93
2022-08-14T01:14:01.171Z,2.50
2022-08-14T01:17:13.449Z,2.83
2022-08-14T01:20:41.694Z,3.20
2022-08-14T01:23:54.805Z,2.50
2022-08-14T01:27:07.119Z,2.33
2022-08-14T01:30:16.935Z,2.23
2022-08-14T01:33:31.112Z,2.47
2022-08-14T01:36:59.343Z,2.87
2022-08-14T01:40:11.163Z,2.70
2022-08-14T01:43:22.169Z,2.47
2022-08-14T01:46:37.254Z,2.80
2022-08-14T01:49:46.484Z,2.60
2022-08-14T01:53:08.452Z,3.77
2022-08-14T01:56:20.017Z,4.50
2022-08-14T01:59:37.817Z,2.60
2022-08-14T02:02:46.934Z,2.53
2022-08-14T02:06:04.058Z,2.70
2022-08-14T02:09:35.313Z,13.57
2022-08-14T02:12:57.021Z,5.40
2022-08-14T02:16:21.760Z,4.33
2022-08-14T02:19:32.603Z,3.37
2022-08-14T02:22:47.277Z,3.23
2022-08-14T02:25:56.452Z,3.87
2022-08-14T02:29:11.776Z,3.33
2022-08-14T02:32:30.685Z,2.60
2022-08-14T02:35:48.245Z,2.57
2022-08-14T02:39:02.052Z,2.57
2022-08-14T02:42:15.271Z,2.97
2022-08-14T02:45:38.522Z,2.77
2022-08-14T02:49:02.507Z,2.70
2022-08-14T02:52:54.628Z,2.60
2022-08-14T02:55:44.558Z,2.90
2022-08-14T02:58:55.738Z,3.13
2022-08-14T03:02:06.209Z,3.47
2022-08-14T03:05:36.966Z,3.07
2022-08-14T03:08:49.351Z,2.83
2022-08-14T03:11:57.978Z,2.77
2022-08-14T03:15:19.078Z,2.90
2022-08-14T03:18:31.097Z,2.60
2022-08-14T03:21:40.891Z,3.10
2022-08-14T03:24:49.114Z,2.70
2022-08-14T03:28:02.601Z,3.10
2022-08-14T03:31:13.626Z,3.20
2022-08-14T03:34:24.751Z,2.90
2022-08-14T03:39:13.278Z,4.73
2022-08-14T03:41:24.450Z,2.50
2022-08-14T03:45:18.844Z,3.03
2022-08-14T03:48:11.094Z,2.77
2022-08-14T03:51:37.900Z,2.53
2022-08-14T03:54:52.264Z,2.90
2022-08-14T03:58:01.108Z,3.30
2022-08-14T04:01:10.175Z,3.23
2022-08-14T04:04:18.382Z,2.97
2022-08-14T04:07:28.325Z,3.60
2022-08-14T04:10:41.170Z,3.30
2022-08-14T04:13:50.038Z,3.27
2022-08-14T04:16:58.611Z,4.00
2022-08-14T04:20:09.984Z,2.93
2022-08-14T04:23:23.654Z,5.90
2022-08-14T04:26:42.382Z,6.23
2022-08-14T04:29:51.736Z,9.60
2022-08-14T04:33:06.390Z,2.33
2022-08-14T04:36:19.141Z,3.27
2022-08-14T04:39:46.990Z,3.50
2022-08-14T04:43:22.853Z,4.50
2022-08-14T04:46:56.472Z,2.97
2022-08-14T04:49:59.305Z,3.03
2022-08-14T04:53:13.773Z,2.67
2022-08-14T04:56:31.507Z,3.30
2022-08-14T04:59:43.474Z,3.73
2022-08-14T05:02:51.986Z,3.20
2022-08-14T05:06:05.221Z,3.33
2022-08-14T05:09:33.429Z,4.30
2022-08-14T05:13:14.320Z,2.43
2022-08-14T05:16:13.247Z,3.10
2022-08-14T05:19:28.999Z,2.73
2022-08-14T05:22:39.095Z,3.07
2022-08-14T05:25:49.270Z,2.70
2022-08-14T05:29:02.168Z,2.60
2022-08-14T05:32:10.918Z,2.47
2022-08-14T05:35:20.663Z,2.47
2022-08-14T05:38:35.266Z,2.97
2022-08-14T05:41:53.566Z,4.90
2022-08-14T05:45:11.251Z,3.00
2022-08-14T05:48:23.470Z,2.90
2022-08-14T05:51:41.725Z,2.27
2022-08-14T05:54:49.911Z,2.33
2022-08-14T05:58:01.645Z,2.80
2022-08-14T06:01:11.415Z,6.77
2022-08-14T06:04:21.240Z,2.50
2022-08-14T06:07:29.475Z,2.27
2022-08-14T06:10:37.954Z,2.20
2022-08-14T06:13:46.152Z,2.57
2022-08-14T06:16:55.684Z,2.43
2022-08-14T06:20:04.733Z,3.00
2022-08-14T06:23:12.980Z,2.27
2022-08-14T06:26:22.797Z,2.67
2022-08-14T06:29:40.115Z,2.70
2022-08-14T06:32:52.977Z,2.43
2022-08-14T06:36:01.530Z,2.07
2022-08-14T06:39:11.565Z,2.00
2022-08-14T06:42:33.102Z,1.90
2022-08-14T06:45:50.217Z,2.20
2022-08-14T06:49:03.845Z,2.43
2022-08-14T06:52:16.126Z,1.73
2022-08-14T06:55:28.178Z,1.73
2022-08-14T06:58:37.663Z,2.10
2022-08-14T07:02:03.512Z,1.83
2022-08-14T07:05:29.653Z,1.40
2022-08-14T07:08:37.864Z,1.70
2022-08-14T07:11:46.030Z,1.60
2022-08-14T07:15:01.056Z,1.30
2022-08-14T07:18:15.563Z,2.30
2022-08-14T07:21:25.457Z,2.20
2022-08-14T07:24:34.642Z,2.00
2022-08-14T07:27:44.482Z,2.87
2022-08-14T07:31:04.174Z,1.50
2022-08-14T07:34:13.585Z,1.87
2022-08-14T07:37:43.192Z,2.40
2022-08-14T07:40:53.303Z,1.43
2022-08-14T07:44:22.627Z,1.47
2022-08-14T07:47:29.773Z,1.50
2022-08-14T07:50:39.416Z,3.03
2022-08-14T07:53:49.513Z,1.97
2022-08-14T07:57:06.293Z,2.27
2022-08-14T08:00:31.285Z,1.50
2022-08-14T08:03:49.463Z,1.37
2022-08-14T08:07:03.449Z,3.03
2022-08-14T08:11:02.224Z,1.37
2022-08-14T08:14:10.830Z,1.73
2022-08-14T08:17:26.322Z,1.70
2022-08-14T08:20:46.517Z,1.50
2022-08-14T08:24:01.609Z,1.40
2022-08-14T08:27:21.410Z,1.43
2022-08-14T08:30:32.502Z,1.90
2022-08-14T08:33:43.668Z,2.83
2022-08-14T08:37:05.157Z,2.40
2022-08-14T08:40:30.971Z,1.50
2022-08-14T08:43:46.760Z,2.77
2022-08-14T08:46:58.849Z,1.37
2022-08-14T08:50:23.033Z,1.67
2022-08-14T08:53:33.976Z,1.63
2022-08-14T08:56:45.427Z,2.50
2022-08-14T08:59:58.823Z,4.57
2022-08-14T09:03:11.794Z,2.60
2022-08-14T09:06:54.523Z,2.33
2022-08-14T09:09:59.180Z,3.43
2022-08-14T09:13:08.599Z,2.27
2022-08-14T09:16:23.605Z,2.87
2022-08-14T09:19:33.292Z,1.90
2022-08-14T09:22:48.168Z,1.60
2022-08-14T09:26:00.158Z,4.07
2022-08-14T09:29:11.122Z,1.90
2022-08-14T09:32:58.937Z,1.90
2022-08-14T09:36:35.220Z,1.83
2022-08-14T09:40:01.415Z,1.70
2022-08-14T09:43:29.763Z,2.37
2022-08-14T09:46:39.011Z,1.93
2022-08-14T09:49:53.314Z,2.10
2022-08-14T09:53:10.460Z,2.17
2022-08-14T09:56:30.250Z,2.20
2022-08-14T09:59:46.446Z,2.40
2022-08-14T10:03:05.635Z,1.93
2022-08-14T10:06:19.893Z,1.87
2022-08-14T10:09:33.235Z,2.10
2022-08-14T10:12:48.459Z,1.50
2022-08-14T10:16:01.241Z,2.90
2022-08-14T10:19:13.740Z,2.50
2022-08-14T10:23:14.934Z,2.10
2022-08-14T10:26:05.965Z,1.90
2022-08-14T10:29:23.491Z,2.97
2022-08-14T10:32:51.885Z,2.40
2022-08-14T10:36:02.797Z,2.00
2022-08-14T10:39:22.634Z,1.90
2022-08-14T10:42:38.230Z,1.50
2022-08-14T10:46:21.579Z,1.97
2022-08-14T10:49:30.815Z,1.07
2022-08-14T10:52:42.252Z,1.47
2022-08-14T10:56:03.596Z,2.00
2022-08-14T10:59:13.299Z,2.07
2022-08-14T11:02:44.823Z,1.47
2022-08-14T11:06:01.171Z,1.40
2022-08-14T11:09:17.061Z,1.17
2022-08-14T11:12:40.540Z,1.10
2022-08-14T11:15:50.313Z,1.00
2022-08-14T11:19:06.192Z,1.27
2022-08-14T11:22:55.501Z,1.60
2022-08-14T11:25:53.375Z,1.63
2022-08-14T11:29:05.843Z,1.57
2022-08-14T11:32:14.178Z,1.43
2022-08-14T11:35:26.281Z,1.20
2022-08-14T11:38:53.875Z,2.33
2022-08-14T11:42:07.619Z,1.00
2022-08-14T11:45:37.395Z,1.37
2022-08-14T11:49:03.576Z,1.20
2022-08-14T11:52:13.966Z,0.93
2022-08-14T11:55:26.244Z,1.53
2022-08-14T11:58:37.300Z,1.40
2022-08-14T12:01:47.182Z,3.43
2022-08-14T12:04:56.388Z,1.00
2022-08-14T12:08:12.007Z,1.13
2022-08-14T12:11:23.073Z,1.00
2022-08-14T12:14:36.006Z,1.03
2022-08-14T12:17:50.548Z,1.63
2022-08-14T12:21:00.188Z,1.03
2022-08-14T12:24:36.011Z,1.43
2022-08-14T12:27:52.573Z,2.40
2022-08-14T12:31:20.729Z,2.57
2022-08-14T12:34:35.433Z,1.93
2022-08-14T12:37:50.662Z,1.47
2022-08-14T12:40:58.962Z,2.63
2022-08-14T12:44:08.837Z,4.27
2022-08-14T12:47:20.275Z,2.17
2022-08-14T12:50:40.539Z,1.10
2022-08-14T12:53:50.785Z,1.70
2022-08-14T12:57:08.194Z,0.90
2022-08-14T13:00:22.616Z,1.10
2022-08-14T13:03:32.336Z,2.73
2022-08-14T13:06:49.372Z,1.63
2022-08-14T13:09:59.788Z,1.93
2022-08-14T13:13:15.220Z,1.00
2022-08-14T13:16:33.679Z,1.33
2022-08-14T13:19:47.817Z,1.30
2022-08-14T13:23:00.212Z,0.90
2022-08-14T13:26:09.634Z,1.40
2022-08-14T13:29:20.959Z,1.80
2022-08-14T13:32:29.885Z,1.03
2022-08-14T13:35:39.670Z,1.10
2022-08-14T13:38:51.151Z,1.00
2022-08-14T13:42:04.329Z,1.13
2022-08-14T13:45:17.934Z,1.40
2022-08-14T13:48:33.395Z,2.30
2022-08-14T13:51:50.424Z,1.40
2022-08-14T13:55:07.197Z,0.97
2022-08-14T13:58:33.604Z,1.20
2022-08-14T14:01:44.717Z,1.10
2022-08-14T14:04:53.615Z,1.30
2022-08-14T14:08:18.583Z,2.43
2022-08-14T14:11:39.083Z,1.67
2022-08-14T14:14:51.845Z,0.97
2022-08-14T14:18:03.893Z,1.50
2022-08-14T14:21:12.512Z,1.23
2022-08-14T14:24:23.198Z,2.33
2022-08-14T14:27:40.893Z,0.80
2022-08-14T14:30:53.189Z,0.97
2022-08-14T14:34:07.637Z,1.27
2022-08-14T14:37:23.023Z,2.17
2022-08-14T14:40:54.371Z,1.00
2022-08-14T14:44:15.823Z,0.90
2022-08-14T14:47:26.619Z,1.10
2022-08-14T14:50:38.330Z,1.13
2022-08-14T14:53:49.611Z,0.90
2022-08-14T14:56:59.823Z,1.80
2022-08-14T15:00:19.391Z,1.10
2022-08-14T15:03:28.877Z,1.27
2022-08-14T15:06:38.966Z,1.27
2022-08-14T15:09:56.258Z,1.00
2022-08-14T15:13:06.656Z,1.23
2022-08-14T15:16:17.284Z,6.60
2022-08-14T15:19:25.498Z,2.53
2022-08-14T15:22:39.558Z,2.13
2022-08-14T15:25:53.372Z,1.33
2022-08-14T15:29:05.699Z,1.47
2022-08-14T15:32:21.072Z,1.50
2022-08-14T15:35:34.113Z,1.07
2022-08-14T15:38:42.859Z,1.20
2022-08-14T15:41:57.221Z,1.63
2022-08-14T15:45:11.676Z,1.50
2022-08-14T15:48:22.609Z,1.43
2022-08-14T15:51:32.001Z,1.23
2022-08-14T15:54:43.162Z,1.37
2022-08-14T15:58:03.617Z,1.00
2022-08-14T16:01:50.845Z,4.10
2022-08-14T16:04:53.024Z,1.70
2022-08-14T16:08:24.297Z,1.17
2022-08-14T16:11:36.895Z,1.40
2022-08-14T16:14:45.582Z,1.50
2022-08-14T16:17:55.311Z,2.03
2022-08-14T16:21:12.162Z,1.30
2022-08-14T16:24:28.120Z,8.50
2022-08-14T16:27:40.887Z,3.63
2022-08-14T16:30:52.647Z,3.83
2022-08-14T16:34:00.839Z,3.43
2022-08-14T16:37:34.087Z,3.73
2022-08-14T16:40:45.765Z,1.47
2022-08-14T16:43:59.381Z,1.90
2022-08-14T16:47:12.830Z,1.70
2022-08-14T16:50:43.089Z,2.40
2022-08-14T16:53:51.381Z,1.23
2022-08-14T16:57:17.093Z,3.33
2022-08-14T17:00:33.059Z,4.87
2022-08-14T17:04:03.456Z,2.60
2022-08-14T17:07:15.423Z,2.57
2022-08-14T17:10:28.224Z,1.50
2022-08-14T17:13:59.169Z,1.50
2022-08-14T17:17:05.885Z,2.20
2022-08-14T17:20:39.217Z,3.90
2022-08-14T17:23:46.072Z,2.40
2022-08-14T17:26:55.988Z,3.17
2022-08-14T17:30:32.614Z,5.00
2022-08-14T17:33:40.465Z,3.10
2022-08-14T17:36:56.102Z,2.83
2022-08-14T17:40:15.893Z,2.70
2022-08-14T17:43:41.350Z,2.63
2022-08-14T17:46:55.248Z,2.70
2022-08-14T17:50:58.627Z,3.07
2022-08-14T17:53:36.993Z,3.23
2022-08-14T17:57:13.118Z,3.50
2022-08-14T18:00:23.568Z,2.80
2022-08-14T18:03:44.965Z,3.37
2022-08-14T18:07:09.064Z,3.53
2022-08-14T18:10:55.614Z,3.43
2022-08-14T18:14:04.022Z,3.37
2022-08-14T18:17:16.409Z,3.00
2022-08-14T18:21:40.783Z,2.80
2022-08-14T18:23:55.152Z,3.40
2022-08-14T18:27:08.863Z,2.83
2022-08-14T18:30:36.461Z,3.13
2022-08-14T18:33:57.916Z,2.83
2022-08-14T18:37:19.929Z,3.07
2022-08-14T18:40:34.979Z,11.10
2022-08-14T18:43:59.258Z,8.97
2022-08-14T18:47:25.497Z,12.93
2022-08-14T18:50:48.828Z,6.83
2022-08-14T18:54:02.323Z,7.70
2022-08-14T18:57:10.770Z,7.13
2022-08-14T19:00:58.731Z,8.17
2022-08-14T19:04:08.289Z,6.63
2022-08-14T19:07:19.141Z,5.80
2022-08-14T19:10:37.470Z,7.17
2022-08-14T19:13:51.775Z,7.30
2022-08-14T19:17:00.052Z,6.90
2022-08-14T19:20:09.496Z,5.73
2022-08-14T19:23:23.437Z,4.37
2022-08-14T19:27:19.193Z,4.20
2022-08-14T19:30:29.113Z,15.10
2022-08-14T19:33:53.712Z,14.17
2022-08-14T19:37:06.022Z,10.87
2022-08-14T19:40:28.983Z,10.33
2022-08-14T19:43:55.942Z,11.60
2022-08-14T19:47:10.883Z,5.60
2022-08-14T19:50:37.915Z,6.53
2022-08-14T19:53:56.944Z,5.03
2022-08-14T19:57:05.831Z,5.33
2022-08-14T20:00:28.270Z,5.47
2022-08-14T20:04:00.341Z,6.67
2022-08-14T20:07:26.761Z,6.60
2022-08-14T20:11:07.975Z,6.93
2022-08-14T20:14:12.061Z,6.97
2022-08-14T20:17:30.983Z,7.13
2022-08-14T20:20:48.559Z,5.27
2022-08-14T20:24:31.104Z,6.33
2022-08-14T20:27:40.213Z,5.47
2022-08-14T20:30:53.706Z,7.40
2022-08-14T20:34:24.375Z,5.53
2022-08-14T20:37:41.125Z,5.97
2022-08-14T20:40:52.628Z,5.60
2022-08-14T20:44:20.967Z,5.77
2022-08-14T20:47:50.831Z,4.90
2022-08-14T20:51:26.266Z,5.03
2022-08-14T20:54:50.126Z,4.70
2022-08-14T20:58:09.556Z,4.70
2022-08-14T21:01:35.799Z,4.47
2022-08-14T21:04:56.340Z,5.00
2022-08-14T21:08:08.336Z,4.17
2022-08-14T21:11:31.601Z,5.23
2022-08-14T21:14:39.799Z,3.70
2022-08-14T21:18:01.303Z,3.80
2022-08-14T21:21:16.136Z,4.10
2022-08-14T21:24:39.842Z,4.10
2022-08-14T21:27:57.101Z,6.77
2022-08-14T21:31:09.034Z,4.60
2022-08-14T21:34:30.970Z,4.60
2022-08-14T21:37:47.681Z,4.67
2022-08-14T21:40:58.219Z,4.00
2022-08-14T21:44:17.551Z,4.80
2022-08-14T21:47:26.590Z,4.27
2022-08-14T21:51:00.701Z,4.83
2022-08-14T21:54:31.933Z,4.97
2022-08-14T21:57:55.801Z,4.97
2022-08-14T22:01:14.404Z,6.23
2022-08-14T22:04:31.904Z,6.20
2022-08-14T22:07:43.852Z,4.60
2022-08-14T22:10:54.833Z,5.07
2022-08-14T22:14:25.802Z,4.50
2022-08-14T22:17:35.084Z,5.37
2022-08-14T22:20:44.697Z,7.07
2022-08-14T22:23:55.313Z,4.90
2022-08-14T22:27:06.913Z,4.57
2022-08-14T22:30:18.621Z,4.80
2022-08-14T22:33:31.313Z,4.27
2022-08-14T22:36:49.655Z,3.93
2022-08-14T22:40:51.646Z,4.57
2022-08-14T22:43:27.581Z,3.57
2022-08-14T22:46:43.543Z,4.23
2022-08-14T22:50:28.805Z,4.57
2022-08-14T22:53:20.345Z,4.97
2022-08-14T22:56:31.945Z,5.63
2022-08-14T22:59:40.553Z,4.80
2022-08-14T23:02:49.804Z,5.20
2022-08-14T23:07:02.436Z,4.67
2022-08-14T23:09:38.615Z,6.10
2022-08-14T23:12:55.097Z,3.97
2022-08-14T23:16:03.376Z,8.03
2022-08-14T23:19:11.740Z,3.47
2022-08-14T23:22:21.186Z,4.10
2022-08-14T23:25:59.573Z,3.43
2022-08-14T23:29:02.988Z,4.90
2022-08-14T23:32:15.695Z,3.87
2022-08-14T23:35:29.065Z,3.57
2022-08-14T23:38:42.053Z,6.57
2022-08-14T23:41:53.744Z,3.60
2022-08-14T23:45:03.610Z,3.80
2022-08-14T23:48:20.704Z,5.47
2022-08-14T23:51:36.637Z,3.57
2022-08-14T23:54:49.116Z,3.23
2022-08-14T23:58:00.481Z,2.97
